ususleCam  ususleCam


Besuchen Sie unsere anderen Wetter Stationen:

Template documentation
and downloads

And another site



METAR-Meldungen aus der Umgebung

   
LSZH - Zurich-Kloten (a, Switzerland
Entfernung von der Station bis: NW 47 km
Aktualisierung: 19-09-2019 10:20
Klar  
Klar  
   Wind: NO 15 km/h
Wind: NO 15 km/h
Temperatur: 12°C
Taupunkt: 3°C
Luftfeuchte: 54%
Luftdruck: 1026 hPa
Sichtbarkeit: More than 10 km
Bewölkung: Klar
LSZH 190820Z 05008KT 360V090 CAVOK 12/03 Q1026 NOSIG
LSZL - Locarno, Switzerland
Entfernung von der Station bis: S 119 km
Aktualisierung: 19-09-2019 10:20
Bewölkt  
Bewölkt  
   Wind: variiert 4 km/h
Wind: variiert 4 km/h
Temperatur: 18°C
Taupunkt: 18°C
Luftfeuchte: 100%
Luftdruck: 1020 hPa
Bewölkung: Bewölkt
Sichtbarkeit: 9 km
Bewölkung: Stark bewölkt 1500 ft,
Bewölkt 2000 ft
LSZL 190820Z VRB02KT 9000 BKN015 OVC020 18/18 Q1020 RMK WHT
LSZS - Samedan, Switzerland
Entfernung von der Station bis: SO 101 km
Aktualisierung: 19-09-2019 10:20
leicht bewölkt  
leicht bewölkt  
   Wind: ONO 6 km/h
Wind: ONO 6 km/h
Temperatur: 9°C
Gefühlt: 8°C
Taupunkt: 6°C
Luftfeuchte: 82%
Luftdruck: 1024 hPa
Bewölkung: leicht bewölkt
Sichtbarkeit: More than 10 km
Bewölkung: leicht bewölkt 4500 ft
LSZS 190820Z 07003KT 030V120 9999 FEW045 09/06 Q1024 RMK F
LSME - Emmen, Switzerland
Entfernung von der Station bis: WSW 58 km
Aktualisierung: 19-09-2019 10:20
Stark bewölkt  
Stark bewölkt  
   Wind: ONO 7 km/h
Wind: ONO 7 km/h
Temperatur: 12°C
Taupunkt: 5°C
Luftfeuchte: 63%
Luftdruck: 1025 hPa
Bewölkung: Stark bewölkt
Sichtbarkeit: More than 10 km
Bewölkung: Stark bewölkt 4000 ft
LSME 190820Z 07004KT 010V140 9999 BKN040 12/05 Q1025 RMK BLU
LSZB - Bern/Belp, Switzerland
Entfernung von der Station bis: WSW 122 km
Aktualisierung: 19-09-2019 10:20
Klar  
Klar  
   Wind: NNO 9 km/h
Wind: NNO 9 km/h
Temperatur: 13°C
Taupunkt: 6°C
Luftfeuchte: 63%
Luftdruck: 1024 hPa
Sichtbarkeit: More than 10 km
Bewölkung: Klar
LSZB 190820Z 02005KT CAVOK 13/06 Q1024 NOSIG
LFSB - Bale/Mulhouse, France
Entfernung von der Station bis: WNW 121 km
Aktualisierung: 19-09-2019 10:30
Klar  
Klar  
   Wind: Norden 11 km/h
Wind: Norden 11 km/h
Temperatur: 11°C
Taupunkt: 6°C
Luftfeuchte: 72%
Luftdruck: 1026 hPa
Sichtbarkeit: More than 10 km
Bewölkung: Klar
LFSB 190830Z 01006KT 340V040 CAVOK 11/06 Q1026 BECMG 01010KT

Script entwickelt von  Saratoga-weather.org Angepasst für das Template von  Weerstation Leuven

Von uns verwendete Ausrüstung:

Wetterstation
Davis Vue

Wetterprogramm
Weather Display

Davis Vue

Weather Display